Time;durP1;ratioP1;P1;durP2;ratioP2;P2;SDS_P1;SDS_P2;PMS_P1;PMS_P2;Temp;Humidity;BMP_temperature;BMP_pressure;BME280_temperature;BME280_humidity;BME280_pressure;Samples;Min_cycle;Max_cycle;Signal;HPM_P1;HPM_P2
2021/09/20 00:00:11;;;;;;;11.60;8.00;;;;;;;10.40;81.05;97090.45;117397;1175;69087;-76
2021/09/20 00:03:01;;;;;;;11.20;8.30;;;;;;;10.33;81.03;97088.94;117384;1175;68918;-73
2021/09/20 00:05:31;;;;;;;10.90;8.60;;;;;;;10.28;80.96;97083.83;117424;1177;59671;-72
2021/09/20 00:08:01;;;;;;;11.70;8.10;;;;;;;10.21;81.12;97082.84;117375;1174;59543;-76
2021/09/20 00:10:32;;;;;;;11.00;8.00;;;;;;;10.15;81.13;97084.09;117282;1176;71416;-75
2021/09/20 00:13:02;;;;;;;11.70;8.30;;;;;;;10.08;81.15;97082.73;117392;1176;68305;-76
2021/09/20 00:15:31;;;;;;;11.50;8.30;;;;;;;10.00;81.62;97080.67;117417;1175;68423;-73
2021/09/20 00:18:01;;;;;;;12.50;8.80;;;;;;;9.91;82.34;97080.10;117403;1175;59529;-71
2021/09/20 00:20:31;;;;;;;12.10;9.00;;;;;;;9.84;82.42;97087.84;117402;1175;59472;-74
2021/09/20 00:23:00;;;;;;;13.40;8.70;;;;;;;9.76;82.74;97084.94;117383;1174;70632;-76
2021/09/20 00:25:30;;;;;;;12.00;8.70;;;;;;;9.69;82.93;97089.88;117415;1175;67743;-72
2021/09/20 00:28:02;;;;;;;13.00;8.20;;;;;;;9.61;82.82;97091.63;117485;1176;69135;-72
2021/09/20 00:30:32;;;;;;;14.80;8.80;;;;;;;9.54;83.89;97092.32;117460;1175;59504;-72
2021/09/20 00:33:02;;;;;;;12.50;9.10;;;;;;;9.48;83.04;97094.09;117428;1176;59506;-76
2021/09/20 00:35:32;;;;;;;15.30;10.70;;;;;;;9.42;84.17;97093.17;117432;1175;71352;-75
2021/09/20 00:38:03;;;;;;;14.00;10.30;;;;;;;9.39;83.29;97092.40;117412;1177;68279;-77
2021/09/20 00:40:33;;;;;;;14.80;10.40;;;;;;;9.37;83.31;97091.81;117426;1177;68446;-75
2021/09/20 00:43:04;;;;;;;14.30;10.30;;;;;;;9.36;83.43;97093.20;117371;1175;59910;-75
2021/09/20 00:45:33;;;;;;;13.70;10.10;;;;;;;9.36;83.69;97098.39;117446;1175;59561;-75
2021/09/20 00:48:04;;;;;;;14.60;9.60;;;;;;;9.38;84.35;97098.50;117512;1176;70637;-78
2021/09/20 00:50:35;;;;;;;15.80;9.90;;;;;;;9.40;84.66;97099.63;117492;1171;70347;-73
2021/09/20 00:53:05;;;;;;;15.00;10.40;;;;;;;9.43;85.44;97101.98;117364;1176;69044;-74
2021/09/20 00:55:36;;;;;;;14.60;10.40;;;;;;;9.43;85.81;97102.94;117086;1175;59583;-77
2021/09/20 00:58:08;;;;;;;19.50;10.00;;;;;;;9.42;85.32;97099.98;117475;1176;59539;-71
2021/09/20 01:00:38;;;;;;;13.60;10.50;;;;;;;9.39;85.52;97090.34;117442;1171;71416;-74
2021/09/20 01:03:09;;;;;;;16.20;11.10;;;;;;;9.37;85.01;97090.95;117449;1175;69191;-75
2021/09/20 01:05:40;;;;;;;14.50;10.80;;;;;;;9.33;85.17;97083.32;117356;1176;69216;-77
2021/09/20 01:08:10;;;;;;;;;;;;;;;9.29;86.06;97080.27;117488;1175;59535;-73
2021/09/20 01:10:41;;;;;;;13.40;9.60;;;;;;;9.23;84.98;97079.60;117441;1175;59514;-76
2021/09/20 01:13:12;;;;;;;13.20;9.70;;;;;;;9.16;85.22;97081.07;117229;1176;70397;-73
2021/09/20 01:15:42;;;;;;;;;;;;;;;9.08;85.46;97080.83;117466;1177;67715;-77
2021/09/20 01:18:12;;;;;;;14.10;9.60;;;;;;;9.00;85.48;97082.64;117375;1177;69413;-75
2021/09/20 01:20:43;;;;;;;13.30;10.00;;;;;;;8.92;85.35;97086.88;117490;1176;59961;-70
2021/09/20 01:23:12;;;;;;;15.40;10.40;;;;;;;8.88;85.76;97086.45;117458;1176;59520;-77
2021/09/20 01:25:42;;;;;;;17.00;10.00;;;;;;;8.84;85.29;97089.33;117426;1176;71583;-75
2021/09/20 01:28:12;;;;;;;13.30;8.80;;;;;;;8.83;86.90;97083.61;117361;1177;69036;-75
2021/09/20 01:30:43;;;;;;;16.50;11.00;;;;;;;8.79;88.14;97088.02;117560;1175;69155;-77
2021/09/20 01:33:13;;;;;;;12.20;9.60;;;;;;;8.74;87.22;97084.95;117450;1175;59963;-74
2021/09/20 01:35:44;;;;;;;13.20;10.50;;;;;;;8.67;86.55;97088.67;117447;1176;59461;-75
2021/09/20 01:38:14;;;;;;;;;;;;;;;8.62;86.18;97090.32;117547;1176;70204;-70
2021/09/20 01:40:46;;;;;;;14.80;9.20;;;;;;;8.56;86.40;97089.75;117418;1175;69284;-77
2021/09/20 01:43:16;;;;;;;14.70;9.70;;;;;;;8.51;86.15;97089.89;117403;1175;68341;-74
2021/09/20 01:45:46;;;;;;;12.90;10.20;;;;;;;8.46;86.10;97087.61;117446;1177;59912;-73
2021/09/20 01:48:18;;;;;;;18.20;9.80;;;;;;;8.42;86.81;97087.30;117441;1175;59533;-77
2021/09/20 01:50:48;;;;;;;19.60;10.10;;;;;;;8.38;87.12;97091.73;117368;1176;71408;-73
2021/09/20 01:53:18;;;;;;;13.10;8.80;;;;;;;8.35;87.38;97092.05;117365;1174;68294;-75
2021/09/20 01:55:48;;;;;;;15.30;10.60;;;;;;;8.31;87.15;97092.06;117408;1176;69057;-76
2021/09/20 01:58:18;;;;;;;15.50;9.50;;;;;;;8.25;86.85;97091.88;117416;1174;59519;-74
2021/09/20 02:00:50;;;;;;;12.70;8.80;;;;;;;8.19;87.14;97092.10;117471;1174;59497;-69
2021/09/20 02:03:21;;;;;;;13.50;9.10;;;;;;;8.15;87.34;97091.20;117456;1177;70925;-76
2021/09/20 02:05:51;;;;;;;;;;;;;;;8.11;87.62;97089.55;117487;1176;69438;-76
2021/09/20 02:08:24;;;;;;;15.80;10.70;;;;;;;8.10;89.46;97095.59;117469;1175;69447;-72
2021/09/20 02:10:54;;;;;;;17.30;11.60;;;;;;;8.07;88.84;97098.23;117554;1176;60193;-77
2021/09/20 02:13:24;;;;;;;18.00;11.60;;;;;;;8.08;87.74;97094.13;117441;1175;59514;-73
2021/09/20 02:15:53;;;;;;;19.40;12.50;;;;;;;8.09;87.69;97094.75;117431;1174;71364;-69
2021/09/20 02:18:23;;;;;;;20.30;12.90;;;;;;;8.11;87.52;97089.98;117415;1177;69244;-73
2021/09/20 02:20:52;;;;;;;23.10;13.40;;;;;;;8.14;87.14;97089.48;117398;1175;68401;-74
2021/09/20 02:23:22;;;;;;;18.50;12.70;;;;;;;8.18;87.31;97081.90;117354;1175;59500;-78
2021/09/20 02:25:54;;;;;;;19.90;12.50;;;;;;;8.19;87.35;97080.11;117414;1173;59495;-71
2021/09/20 02:28:23;;;;;;;21.00;14.40;;;;;;;8.23;87.97;97073.02;117386;1174;71341;-72
2021/09/20 02:30:53;;;;;;;22.00;14.90;;;;;;;8.25;88.72;97069.98;117354;1174;68275;-76
2021/09/20 02:33:23;;;;;;;22.60;15.80;;;;;;;8.31;88.92;97070.48;117355;1174;69297;-76
2021/09/20 02:35:52;;;;;;;23.90;14.90;;;;;;;8.38;88.20;97079.76;117483;1177;59542;-73
2021/09/20 02:38:23;;;;;;;18.50;12.30;;;;;;;8.45;89.11;97080.13;117539;1174;59465;-71
2021/09/20 02:40:53;;;;;;;16.60;11.60;;;;;;;8.46;88.74;97078.06;117426;1175;70557;-74
2021/09/20 02:43:24;;;;;;;16.30;10.50;;;;;;;8.44;88.04;97078.81;117453;1177;69167;-75
2021/09/20 02:45:55;;;;;;;19.60;11.70;;;;;;;8.43;87.89;97078.90;117589;1174;68356;-72
2021/09/20 02:48:25;;;;;;;17.70;11.20;;;;;;;8.45;88.20;97078.40;117410;1175;59551;-76
2021/09/20 02:50:55;;;;;;;17.40;11.60;;;;;;;8.49;88.50;97079.31;117381;1175;59513;-73
2021/09/20 02:53:24;;;;;;;15.10;11.10;;;;;;;8.53;88.37;97079.92;117287;1176;69621;-73
2021/09/20 02:55:55;;;;;;;15.30;11.50;;;;;;;8.52;88.14;97070.31;117434;1174;69191;-74
2021/09/20 02:58:24;;;;;;;16.40;10.90;;;;;;;8.55;88.27;97073.16;117329;1175;68443;-72
2021/09/20 03:00:54;;;;;;;12.60;9.60;;;;;;;8.57;88.08;97072.86;117462;1174;59528;-71
2021/09/20 03:03:24;;;;;;;15.20;10.40;;;;;;;8.60;88.23;97079.32;117415;1175;59525;-72
2021/09/20 03:05:54;;;;;;;12.00;9.00;;;;;;;8.64;88.53;97078.98;117585;1174;70713;-73
2021/09/20 03:08:24;;;;;;;17.70;10.40;;;;;;;8.68;88.70;97081.87;117460;1175;67341;-70
2021/09/20 03:10:54;;;;;;;13.90;10.20;;;;;;;8.72;88.23;97080.08;117418;1174;68484;-76
2021/09/20 03:13:24;;;;;;;15.90;10.20;;;;;;;8.76;88.66;97078.02;117436;1175;59535;-76
2021/09/20 03:15:54;;;;;;;14.10;10.90;;;;;;;8.81;88.72;97080.19;117447;1176;59956;-73
2021/09/20 03:18:23;;;;;;;13.50;10.30;;;;;;;8.86;88.65;97079.89;117396;1176;70450;-75
2021/09/20 03:20:53;;;;;;;17.50;10.60;;;;;;;8.91;89.15;97076.52;117409;1175;69696;-76
2021/09/20 03:23:23;;;;;;;13.10;10.50;;;;;;;8.95;88.50;97076.70;117400;1177;70363;-74
2021/09/20 03:25:52;;;;;;;14.00;9.90;;;;;;;8.99;88.55;97082.37;117390;1175;59526;-75
2021/09/20 03:28:22;;;;;;;15.20;10.20;;;;;;;9.03;88.62;97086.04;117420;1175;59531;-69
2021/09/20 03:30:51;;;;;;;13.20;10.30;;;;;;;9.07;88.10;97083.61;117424;1176;69508;-73
2021/09/20 03:33:21;;;;;;;15.60;9.20;;;;;;;9.08;87.88;97082.30;117427;1176;69241;-71
2021/09/20 03:35:51;;;;;;;13.00;8.90;;;;;;;9.10;87.65;97082.59;117429;1167;69260;-74
2021/09/20 03:38:20;;;;;;;14.40;10.30;;;;;;;9.11;87.79;97082.17;117316;1175;59574;-71
2021/09/20 03:40:49;;;;;;;13.90;10.40;;;;;;;9.13;87.78;97081.16;117432;1175;59516;-74
2021/09/20 03:43:18;;;;;;;15.70;9.80;;;;;;;9.15;87.63;97077.30;117448;1175;70567;-78
2021/09/20 03:45:48;;;;;;;14.70;9.70;;;;;;;9.17;87.68;97072.46;117427;1175;68486;-75
2021/09/20 03:48:17;;;;;;;12.70;9.00;;;;;;;9.17;87.22;97073.55;117431;1175;68213;-73
2021/09/20 03:50:47;;;;;;;12.90;8.60;;;;;;;9.14;86.88;97067.70;117470;1177;59510;-76
2021/09/20 03:53:16;;;;;;;12.40;9.00;;;;;;;9.13;86.71;97057.23;117420;1175;59513;-73
2021/09/20 03:55:46;;;;;;;12.40;9.40;;;;;;;9.13;86.75;97054.23;117420;1176;72467;-75
2021/09/20 03:58:15;;;;;;;13.70;8.90;;;;;;;9.12;86.45;97061.98;117482;1175;68466;-76
2021/09/20 04:00:45;;;;;;;13.00;9.30;;;;;;;9.14;86.36;97071.48;117420;1176;68515;-72
2021/09/20 04:03:14;;;;;;;12.90;9.10;;;;;;;9.16;86.08;97072.23;117421;1175;59529;-74
2021/09/20 04:05:43;;;;;;;14.20;8.90;;;;;;;9.16;86.44;97070.27;117433;1175;59570;-74
2021/09/20 04:08:15;;;;;;;14.20;9.50;;;;;;;9.17;86.43;97076.48;117443;1176;70413;-74
2021/09/20 04:10:45;;;;;;;13.70;9.00;;;;;;;9.17;86.39;97082.96;117515;1175;68969;-69
2021/09/20 04:13:14;;;;;;;12.60;9.20;;;;;;;9.18;86.06;97081.19;117421;1176;68609;-76
2021/09/20 04:15:43;;;;;;;14.70;9.80;;;;;;;9.19;86.08;97084.55;117317;1177;59552;-76
2021/09/20 04:18:13;;;;;;;18.90;9.70;;;;;;;9.20;86.15;97088.15;117450;1175;59528;-73
2021/09/20 04:20:42;;;;;;;16.60;8.50;;;;;;;9.21;86.13;97089.45;117439;1175;71217;-75
2021/09/20 04:23:11;;;;;;;14.00;9.30;;;;;;;9.22;86.08;97090.76;117364;1176;69027;-74
2021/09/20 04:25:41;;;;;;;13.00;9.00;;;;;;;9.23;86.13;97090.73;117258;1175;68454;-76
2021/09/20 04:28:10;;;;;;;12.70;8.20;;;;;;;9.24;86.13;97093.48;117440;1171;59542;-73
2021/09/20 04:30:43;;;;;;;16.20;9.90;;;;;;;9.23;86.18;97096.51;117360;1176;59596;-71
2021/09/20 04:33:18;;;;;;;15.30;9.30;;;;;;;9.25;86.20;97098.80;117257;1177;70423;-75
2021/09/20 04:35:49;;;;;;;13.10;9.40;;;;;;;9.25;85.80;97093.13;117405;1175;68379;-73
2021/09/20 04:38:18;;;;;;;13.50;8.60;;;;;;;9.25;85.49;97087.52;117422;1175;68846;-77
2021/09/20 04:40:47;;;;;;;12.20;8.40;;;;;;;9.24;85.13;97086.75;117376;1177;59524;-75
2021/09/20 04:43:18;;;;;;;12.20;8.60;;;;;;;9.20;85.04;97088.30;117423;1175;59529;-76
2021/09/20 04:45:47;;;;;;;14.90;9.10;;;;;;;9.20;84.78;97094.14;117432;1177;71569;-71
2021/09/20 04:48:17;;;;;;;14.40;9.40;;;;;;;9.21;84.68;97102.71;117410;1176;69201;-74
2021/09/20 04:50:46;;;;;;;14.90;9.30;;;;;;;9.22;84.99;97099.99;117353;1175;69235;-70
2021/09/20 04:53:16;;;;;;;13.20;9.30;;;;;;;9.20;85.00;97105.43;117527;1175;59886;-73
2021/09/20 04:55:47;;;;;;;12.60;9.20;;;;;;;9.20;84.79;97105.58;117443;1176;59699;-69
2021/09/20 04:58:16;;;;;;;14.80;9.40;;;;;;;9.19;84.85;97099.38;117423;1177;71237;-75
2021/09/20 05:00:46;;;;;;;10.70;7.90;;;;;;;9.18;84.85;97108.73;117375;1175;69183;-73
2021/09/20 05:03:15;;;;;;;13.30;9.40;;;;;;;9.18;84.82;97110.33;117391;1174;68771;-74
2021/09/20 05:05:45;;;;;;;13.70;10.00;;;;;;;9.19;84.64;97111.68;117422;1177;59524;-71
2021/09/20 05:08:17;;;;;;;13.80;9.10;;;;;;;9.19;84.62;97118.18;117334;1171;59526;-73
2021/09/20 05:10:46;;;;;;;15.60;9.20;;;;;;;9.21;84.29;97116.29;117447;1175;69573;-76
2021/09/20 05:13:15;;;;;;;12.40;8.60;;;;;;;9.22;84.26;97115.55;117386;1176;69666;-77
2021/09/20 05:15:44;;;;;;;13.50;8.80;;;;;;;9.23;84.29;97115.35;117323;1177;69111;-74
2021/09/20 05:18:14;;;;;;;15.80;9.20;;;;;;;9.26;84.19;97115.65;117355;1176;59534;-74
2021/09/20 05:20:43;;;;;;;11.90;7.40;;;;;;;9.32;83.94;97119.77;117386;1177;59603;-74
2021/09/20 05:23:12;;;;;;;16.60;9.10;;;;;;;9.34;83.86;97120.17;117381;1176;70592;-76
2021/09/20 05:25:41;;;;;;;13.20;9.60;;;;;;;9.42;83.50;97119.54;117364;1175;68643;-75
2021/09/20 05:28:10;;;;;;;12.40;8.50;;;;;;;9.50;83.41;97123.58;117349;1176;68767;-70
2021/09/20 05:30:40;;;;;;;16.70;9.20;;;;;;;9.63;83.53;97121.45;117339;1177;59517;-73
2021/09/20 05:33:09;;;;;;;13.20;8.30;;;;;;;9.72;82.59;97122.90;117240;1177;59535;-74
2021/09/20 05:35:38;;;;;;;14.80;8.80;;;;;;;9.81;82.07;97124.83;117259;1175;71412;-71
2021/09/20 05:38:07;;;;;;;13.20;8.80;;;;;;;9.94;82.06;97127.27;117349;1177;69195;-69
2021/09/20 05:40:36;;;;;;;13.30;8.70;;;;;;;10.04;81.07;97130.20;117376;1176;69328;-75
2021/09/20 05:43:06;;;;;;;11.60;8.20;;;;;;;10.03;81.38;97131.64;117383;1175;59518;-71
2021/09/20 05:45:35;;;;;;;14.20;8.90;;;;;;;10.11;81.46;97134.23;117386;1177;59494;-72
2021/09/20 05:48:04;;;;;;;12.10;7.50;;;;;;;10.24;81.53;97140.96;117396;1176;71321;-71
2021/09/20 05:50:34;;;;;;;10.70;7.60;;;;;;;10.36;81.23;97144.22;117334;1177;69483;-73
2021/09/20 05:53:03;;;;;;;16.10;9.10;;;;;;;10.46;81.25;97144.51;117292;1177;69279;-70
2021/09/20 05:55:32;;;;;;;11.50;7.40;;;;;;;10.53;79.86;97143.63;117341;1175;59512;-72
2021/09/20 05:58:01;;;;;;;14.90;8.10;;;;;;;10.66;79.95;97144.87;117397;1175;59557;-70
2021/09/20 06:00:31;;;;;;;10.80;7.20;;;;;;;10.80;78.96;97142.48;117406;1176;70470;-70
2021/09/20 06:03:01;;;;;;;11.10;7.30;;;;;;;10.98;78.76;97138.37;117448;1177;68292;-71
2021/09/20 06:05:31;;;;;;;10.70;6.90;;;;;;;11.09;78.00;97139.92;117413;1175;69255;-75
2021/09/20 06:08:00;;;;;;;12.20;8.70;;;;;;;11.08;77.48;97139.34;117403;1175;59480;-72
2021/09/20 06:10:29;;;;;;;10.90;7.90;;;;;;;11.14;77.94;97138.11;117319;1175;59516;-70
2021/09/20 06:12:59;;;;;;;10.30;7.40;;;;;;;11.17;77.65;97134.05;117310;1175;71426;-76
2021/09/20 06:15:28;;;;;;;13.80;7.70;;;;;;;11.27;77.93;97131.45;117329;1178;69367;-75
2021/09/20 06:17:57;;;;;;;12.20;7.30;;;;;;;11.36;77.62;97130.81;117294;1176;69246;-77
2021/09/20 06:20:26;;;;;;;12.90;6.90;;;;;;;11.41;76.18;97127.05;117236;1175;59506;-74
2021/09/20 06:22:57;;;;;;;11.10;7.40;;;;;;;11.56;76.79;97124.30;117283;1175;59503;-71
2021/09/20 06:25:26;;;;;;;10.80;6.80;;;;;;;11.71;76.80;97118.89;117310;1177;71351;-77
2021/09/20 06:27:56;;;;;;;10.40;6.40;;;;;;;11.88;76.31;97115.87;116958;1174;69012;-71
2021/09/20 06:30:25;;;;;;;10.20;7.10;;;;;;;12.05;75.40;97115.25;117395;1176;69098;-71
2021/09/20 06:32:55;;;;;;;10.10;6.40;;;;;;;12.32;74.96;97119.16;117337;1176;59513;-75
2021/09/20 06:35:23;;;;;;;9.40;6.60;;;;;;;12.55;74.93;97120.42;117300;1175;59517;-74
2021/09/20 06:37:53;;;;;;;9.40;6.90;;;;;;;12.66;72.72;97121.61;117307;1176;71235;-74
2021/09/20 06:40:22;;;;;;;10.10;6.20;;;;;;;12.69;72.11;97121.73;117359;1177;69340;-74
2021/09/20 06:42:51;;;;;;;7.10;5.10;;;;;;;12.76;72.79;97120.95;117373;1175;68458;-73
2021/09/20 06:45:20;;;;;;;6.90;5.00;;;;;;;12.79;71.41;97122.68;117402;1175;59537;-71
2021/09/20 06:47:49;;;;;;;8.30;5.10;;;;;;;12.86;71.72;97120.70;117031;1175;59542;-71
2021/09/20 06:50:18;;;;;;;9.00;4.20;;;;;;;12.94;70.49;97114.39;117322;1177;71353;-72
2021/09/20 06:52:47;;;;;;;7.20;4.00;;;;;;;13.08;68.98;97112.52;117284;1176;69357;-72
2021/09/20 06:55:16;;;;;;;8.10;5.20;;;;;;;13.39;68.42;97110.64;117373;1175;69272;-71
2021/09/20 06:57:46;;;;;;;7.60;5.30;;;;;;;13.80;67.88;97112.75;117384;1178;59545;-71
2021/09/20 07:00:15;;;;;;;8.40;4.00;;;;;;;14.01;67.43;97120.89;117432;1175;59488;-70
2021/09/20 07:02:44;;;;;;;5.80;4.30;;;;;;;14.18;67.19;97123.04;117350;1177;71226;-73
2021/09/20 07:05:14;;;;;;;7.10;3.90;;;;;;;14.47;64.30;97120.97;117417;1175;69209;-74
2021/09/20 07:07:43;;;;;;;5.60;3.70;;;;;;;14.89;64.37;97125.71;117392;1175;68419;-70
2021/09/20 07:10:14;;;;;;;8.50;4.50;;;;;;;15.01;61.04;97127.62;117333;1176;59532;-74
2021/09/20 07:12:44;;;;;;;8.50;4.80;;;;;;;14.89;61.24;97125.00;117117;1177;59519;-69
2021/09/20 07:15:15;;;;;;;7.50;5.10;;;;;;;14.91;61.75;97123.62;117308;1177;70423;-76
2021/09/20 07:17:44;;;;;;;8.10;5.20;;;;;;;14.90;61.98;97130.29;117340;1177;68187;-73
2021/09/20 07:20:13;;;;;;;7.60;5.40;;;;;;;14.83;61.90;97130.15;117308;1175;68668;-74
2021/09/20 07:22:46;;;;;;;7.90;5.50;;;;;;;14.93;61.73;97134.45;117365;1176;59491;-72
2021/09/20 07:25:15;;;;;;;7.40;5.40;;;;;;;14.94;61.80;97134.08;117344;1175;59440;-70
2021/09/20 07:27:44;;;;;;;7.40;5.00;;;;;;;14.90;61.37;97135.45;117406;1175;71588;-72
2021/09/20 07:30:19;;;;;;;7.70;5.30;;;;;;;14.83;61.56;97136.68;117406;1175;69165;-72
2021/09/20 07:32:51;;;;;;;7.90;5.40;;;;;;;14.69;61.17;97139.60;117316;1175;68395;-77
2021/09/20 07:35:21;;;;;;;6.80;4.90;;;;;;;14.60;61.66;97135.70;117354;1169;59517;-74
2021/09/20 07:37:53;;;;;;;8.30;4.80;;;;;;;14.49;62.05;97138.62;117384;1176;59510;-73
2021/09/20 07:40:26;;;;;;;8.50;5.30;;;;;;;14.39;62.78;97140.86;117419;1175;70876;-76
2021/09/20 07:42:57;;;;;;;9.80;5.20;;;;;;;14.43;62.50;97138.84;117391;1177;69219;-76
2021/09/20 07:45:27;;;;;;;6.90;5.10;;;;;;;14.47;61.71;97136.42;117345;1175;68634;-73
2021/09/20 07:47:56;;;;;;;8.90;4.80;;;;;;;14.53;61.72;97140.05;117309;1176;59491;-76
2021/09/20 07:50:25;;;;;;;7.00;4.60;;;;;;;14.65;61.38;97137.73;117377;1175;59529;-69
2021/09/20 07:52:55;;;;;;;6.40;4.60;;;;;;;14.84;60.93;97140.70;117373;1177;71482;-70
2021/09/20 07:55:24;;;;;;;5.90;4.10;;;;;;;14.85;60.18;97139.95;117369;1175;68821;-73
2021/09/20 07:57:54;;;;;;;5.80;4.50;;;;;;;14.77;60.11;97138.89;117297;1176;69271;-72
2021/09/20 08:00:23;;;;;;;6.70;4.90;;;;;;;14.83;60.93;97135.77;117382;1176;59532;-71
2021/09/20 08:02:52;;;;;;;7.10;4.60;;;;;;;14.92;61.41;97135.20;117402;1175;59535;-73
2021/09/20 08:05:22;;;;;;;5.80;4.10;;;;;;;14.97;60.37;97138.08;117356;1175;71343;-73
2021/09/20 08:07:51;;;;;;;6.20;4.30;;;;;;;14.84;59.67;97135.06;117288;1177;68208;-70
2021/09/20 08:10:20;;;;;;;8.00;4.50;;;;;;;14.68;59.42;97132.69;117375;1175;68685;-70
2021/09/20 08:12:50;;;;;;;7.40;4.20;;;;;;;14.56;60.52;97134.06;117231;1177;59551;-74
2021/09/20 08:15:21;;;;;;;6.60;4.80;;;;;;;14.49;60.95;97131.39;117373;1177;59791;-74
2021/09/20 08:17:49;;;;;;;;;;;;;;;14.40;61.58;97133.17;117340;1176;71204;-70
2021/09/20 08:20:19;;;;;;;8.30;5.30;;;;;;;14.36;61.43;97135.51;117379;1177;68922;-73
2021/09/20 08:22:50;;;;;;;7.10;5.20;;;;;;;14.49;61.61;97130.52;117336;1177;69202;-72
2021/09/20 08:25:21;;;;;;;9.80;5.10;;;;;;;14.70;61.24;97118.23;117406;1177;59507;-74
2021/09/20 08:27:51;;;;;;;7.60;5.40;;;;;;;14.84;59.64;97118.90;117400;1173;59513;-76
2021/09/20 08:30:21;;;;;;;7.20;5.20;;;;;;;14.86;60.30;97112.20;117393;1176;69506;-74
2021/09/20 08:32:51;;;;;;;8.40;5.30;;;;;;;14.91;59.96;97106.13;117390;1176;69002;-73
2021/09/20 08:35:21;;;;;;;5.90;4.50;;;;;;;14.98;59.92;97103.21;117365;1177;68417;-72
2021/09/20 08:37:50;;;;;;;9.50;4.80;;;;;;;14.98;59.86;97108.45;117400;1176;59507;-71
2021/09/20 08:40:20;;;;;;;7.40;5.00;;;;;;;14.85;58.64;97102.61;117385;1177;59522;-74
2021/09/20 08:42:51;;;;;;;7.10;4.20;;;;;;;14.81;57.88;97106.29;117005;1177;71215;-72
2021/09/20 08:45:21;;;;;;;5.80;4.00;;;;;;;14.84;58.42;97106.69;117463;1177;69301;-73
2021/09/20 08:47:52;;;;;;;5.30;4.00;;;;;;;14.86;59.32;97106.43;117393;1176;67319;-73
2021/09/20 08:50:28;;;;;;;5.80;4.40;;;;;;;14.71;60.25;97105.98;117280;1175;59532;-78
2021/09/20 08:52:57;;;;;;;6.10;4.20;;;;;;;14.85;59.00;97108.73;117384;1175;59542;-74
2021/09/20 08:55:27;;;;;;;6.10;4.30;;;;;;;14.68;57.78;97108.38;117341;1176;71285;-72
2021/09/20 08:57:56;;;;;;;6.20;4.50;;;;;;;14.54;57.97;97110.20;117488;1175;69024;-74
2021/09/20 09:00:25;;;;;;;5.20;3.40;;;;;;;14.77;58.91;97106.97;117378;1176;68764;-75
2021/09/20 09:02:54;;;;;;;6.00;4.40;;;;;;;14.98;59.00;97105.66;117392;1177;59449;-75
2021/09/20 09:05:26;;;;;;;5.40;4.30;;;;;;;15.16;57.65;97101.63;117381;1175;59532;-71
2021/09/20 09:08:07;;;;;;;9.10;4.80;;;;;;;15.20;57.97;97103.44;117450;1176;71215;-75
2021/09/20 09:10:38;;;;;;;6.80;4.30;;;;;;;15.70;57.63;97108.45;117408;1175;69176;-73
2021/09/20 09:13:11;;;;;;;6.50;4.50;;;;;;;16.08;55.67;97109.30;117410;1175;69164;-78
2021/09/20 09:15:46;;;;;;;6.20;4.30;;;;;;;17.15;53.84;97098.73;117414;1175;59481;-72
2021/09/20 09:18:15;;;;;;;6.50;4.60;;;;;;;18.36;52.16;97093.91;117378;1176;59517;-71
2021/09/20 09:20:45;;;;;;;6.70;4.00;;;;;;;19.36;48.43;97094.91;117387;1176;71530;-73
2021/09/20 09:23:14;;;;;;;6.10;4.40;;;;;;;20.34;46.29;97092.28;117398;1175;69237;-75
2021/09/20 09:25:48;;;;;;;5.40;3.60;;;;;;;20.45;44.05;97090.38;117355;1176;68343;-76
2021/09/20 09:28:19;;;;;;;7.30;3.90;;;;;;;20.21;44.35;97090.15;117327;1176;59471;-71
2021/09/20 09:30:54;;;;;;;5.80;3.50;;;;;;;20.80;44.86;97094.51;117361;1175;59424;-69
2021/09/20 09:33:34;;;;;;;5.20;3.50;;;;;;;20.38;44.10;97090.08;117388;1177;70396;-72
2021/09/20 09:36:04;;;;;;;4.30;3.20;;;;;;;19.63;45.53;97086.33;117373;1177;68492;-70
2021/09/20 09:38:35;;;;;;;6.10;3.70;;;;;;;19.25;46.94;97089.47;117338;1177;68296;-73
2021/09/20 09:41:05;;;;;;;7.10;4.00;;;;;;;18.90;47.60;97084.52;117359;1175;59599;-72
2021/09/20 09:43:41;;;;;;;5.30;3.90;;;;;;;18.73;47.80;97088.36;117413;1175;59529;-70
2021/09/20 09:46:19;;;;;;;6.00;3.60;;;;;;;18.27;48.21;97077.71;117347;1175;71627;-78
2021/09/20 09:48:49;;;;;;;5.60;3.80;;;;;;;18.05;49.10;97075.44;117383;1175;69162;-73
2021/09/20 09:51:18;;;;;;;6.10;3.60;;;;;;;17.68;50.48;97075.55;117329;1176;69095;-75
2021/09/20 09:53:49;;;;;;;4.90;3.60;;;;;;;17.58;51.17;97073.89;117376;1175;59513;-72
2021/09/20 09:56:25;;;;;;;5.50;3.60;;;;;;;18.02;50.48;97077.91;117408;1175;59535;-72
2021/09/20 09:59:03;;;;;;;7.00;4.10;;;;;;;18.09;50.72;97087.75;117397;1176;71408;-79
2021/09/20 10:01:38;;;;;;;5.90;4.50;;;;;;;18.15;50.62;97083.27;117390;1176;68122;-76
2021/09/20 10:04:13;;;;;;;7.00;4.30;;;;;;;18.25;50.23;97074.80;117388;1177;68580;-74
2021/09/20 10:06:42;;;;;;;6.70;4.30;;;;;;;18.28;50.16;97078.38;117398;1175;59484;-74
2021/09/20 10:09:13;;;;;;;5.20;3.70;;;;;;;18.26;50.32;97077.25;117216;1173;59537;-74
2021/09/20 10:11:47;;;;;;;5.50;4.10;;;;;;;18.31;50.21;97079.69;117423;1175;71345;-72
2021/09/20 10:14:17;;;;;;;6.50;4.50;;;;;;;18.08;49.95;97080.30;117427;1175;69155;-75
2021/09/20 10:16:50;;;;;;;5.10;3.80;;;;;;;18.03;51.26;97077.36;117381;1177;69273;-76
2021/09/20 10:19:20;;;;;;;5.30;4.00;;;;;;;17.77;51.70;97077.48;117398;1177;59517;-76
2021/09/20 10:21:51;;;;;;;5.00;3.90;;;;;;;17.57;52.56;97073.31;117434;1175;59529;-74
2021/09/20 10:24:21;;;;;;;5.50;3.80;;;;;;;17.67;52.34;97071.48;117368;1176;71453;-70
2021/09/20 10:26:52;;;;;;;5.90;4.10;;;;;;;17.64;51.12;97065.23;117346;1176;67470;-76
2021/09/20 10:29:23;;;;;;;5.90;4.40;;;;;;;17.44;50.76;97061.64;117407;1175;68729;-77
2021/09/20 10:31:52;;;;;;;;;;;;;;;17.48;51.94;97060.36;117438;1175;59551;-72
2021/09/20 10:34:21;;;;;;;5.00;3.70;;;;;;;17.50;52.74;97058.84;117421;1175;59929;-73
2021/09/20 10:37:05;;;;;;;6.10;4.20;;;;;;;17.45;52.98;97056.27;117450;1177;70572;-74
2021/09/20 10:39:58;;;;;;;7.60;4.10;;;;;;;17.39;53.12;97056.60;117428;1175;69268;-71
2021/09/20 10:42:36;;;;;;;4.90;3.70;;;;;;;17.42;53.11;97060.97;117416;1176;69233;-72
2021/09/20 10:45:09;;;;;;;5.30;4.10;;;;;;;17.46;52.44;97061.88;117444;1175;59459;-76
2021/09/20 10:47:44;;;;;;;6.70;3.60;;;;;;;17.35;51.62;97062.89;117453;1175;59500;-71
2021/09/20 10:50:14;;;;;;;5.80;3.40;;;;;;;17.24;51.52;97058.56;117425;1175;71501;-74
2021/09/20 10:53:18;;;;;;;5.80;3.90;;;;;;;17.11;52.59;97053.75;117460;1175;69202;-76
2021/09/20 10:56:02;;;;;;;5.40;4.30;;;;;;;17.00;52.16;97055.82;116544;1179;69835;-74
2021/09/20 10:58:40;;;;;;;5.40;3.80;;;;;;;17.04;53.28;97055.00;116556;1180;59521;-72
2021/09/20 11:01:12;;;;;;;5.00;3.80;;;;;;;17.03;54.17;97053.25;116616;1179;59702;-74
2021/09/20 11:03:52;;;;;;;6.50;4.20;;;;;;;16.80;54.14;97062.48;116630;1180;71138;-76
2021/09/20 11:06:25;;;;;;;10.50;4.80;;;;;;;16.76;53.76;97061.30;116584;1179;68513;-74
2021/09/20 11:09:02;;;;;;;7.30;4.40;;;;;;;16.18;55.69;97056.21;116547;1179;69114;-71
2021/09/20 11:11:39;;;;;;;6.80;4.80;;;;;;;15.81;56.67;97059.27;116543;1179;59584;-71
2021/09/20 11:14:14;;;;;;;;;;;;;;;15.67;56.96;97061.16;116566;1180;59619;-75
2021/09/20 11:17:00;;;;;;;7.70;4.50;;;;;;;15.46;57.52;97060.17;116575;1180;70644;-75
2021/09/20 11:19:31;;;;;;;9.30;4.80;;;;;;;15.44;58.96;97063.92;116566;1179;68547;-78
2021/09/20 11:22:04;;;;;;;7.80;4.50;;;;;;;15.51;58.67;97064.20;116605;1180;69069;-75
2021/09/20 11:24:46;;;;;;;6.30;4.50;;;;;;;15.56;58.91;97070.14;116572;1180;59628;-71
2021/09/20 11:27:38;;;;;;;7.30;4.80;;;;;;;15.59;58.32;97066.39;116588;1180;59590;-76
2021/09/20 11:30:16;;;;;;;8.30;5.10;;;;;;;15.44;58.17;97063.29;116574;1179;71402;-72
2021/09/20 11:32:51;;;;;;;8.60;6.00;;;;;;;15.27;58.82;97062.78;117261;1177;69233;-74
2021/09/20 11:35:22;;;;;;;10.60;5.40;;;;;;;15.05;59.13;97068.94;117350;1177;69250;-69
2021/09/20 11:37:52;;;;;;;8.00;5.40;;;;;;;15.01;59.88;97073.02;117375;1176;59518;-73
2021/09/20 11:40:27;;;;;;;7.20;5.00;;;;;;;14.91;60.40;97071.65;117391;1175;59478;-72